Time,TemperatureF,DewpointF,PressureIn,WindDirection,WindDirectionDegrees,WindSpeedMPH,WindSpeedGustMPH,Humidity,HourlyPrecipIn,Conditions,Clouds,dailyrainin,SoftwareType,DateUTC
2013-04-18 00:00:00,33.9,32.9,29.96,NE,42,3.0,7.0,96,0.06,,,0.27,VWS V14.01,2013-04-18 05:00:00,
2013-04-18 00:04:00,33.9,32.9,29.96,ENE,65,1.0,5.0,96,0.05,,,0.00,VWS V14.01,2013-04-18 05:04:00,
2013-04-18 00:09:00,33.9,32.9,29.96,NE,49,2.0,5.0,96,0.06,,,0.01,VWS V14.01,2013-04-18 05:09:00,
2013-04-18 00:15:00,33.9,32.9,29.95,NE,37,4.0,4.0,96,0.05,,,0.01,VWS V14.01,2013-04-18 05:15:00,
2013-04-18 00:20:00,33.9,32.9,29.95,NE,38,3.0,5.0,96,0.05,,,0.01,VWS V14.01,2013-04-18 05:20:00,
2013-04-18 00:25:00,33.9,32.9,29.96,NE,38,2.0,5.0,96,0.05,,,0.01,VWS V14.01,2013-04-18 05:25:00,
2013-04-18 00:30:00,34.0,33.0,29.96,NNE,17,3.0,4.0,96,0.02,,,0.01,VWS V14.01,2013-04-18 05:30:00,
2013-04-18 00:35:00,34.0,33.0,29.95,NE,46,2.0,6.0,96,0.03,,,0.02,VWS V14.01,2013-04-18 05:35:00,
2013-04-18 00:40:00,34.0,33.0,29.95,NNE,25,2.0,6.0,96,0.03,,,0.02,VWS V14.01,2013-04-18 05:40:00,
2013-04-18 00:45:00,33.9,32.9,29.95,NE,52,3.0,5.0,96,0.02,,,0.02,VWS V14.01,2013-04-18 05:45:00,
2013-04-18 00:50:00,33.9,32.9,29.95,NE,45,2.0,5.0,96,0.02,,,0.02,VWS V14.01,2013-04-18 05:50:00,
2013-04-18 00:55:00,33.9,32.9,29.94,NE,54,4.0,6.0,96,0.02,,,0.02,VWS V14.01,2013-04-18 05:55:00,
2013-04-18 01:00:00,33.9,32.9,29.93,ENE,58,6.0,7.0,96,0.03,,,0.03,VWS V14.01,2013-04-18 06:00:00,
2013-04-18 01:01:00,33.9,32.9,29.93,North,5,5.0,6.0,96,0.03,,,0.03,VWS V14.01,2013-04-18 06:01:00,
2013-04-18 01:06:00,33.9,32.9,29.92,East,82,4.0,8.0,96,0.03,,,0.03,VWS V14.01,2013-04-18 06:06:00,
2013-04-18 01:11:00,33.9,32.9,29.91,NE,35,5.0,10.0,96,0.03,,,0.03,VWS V14.01,2013-04-18 06:11:00,
2013-04-18 01:15:00,33.9,32.9,29.92,NE,52,5.0,10.0,96,0.03,,,0.03,VWS V14.01,2013-04-18 06:15:00,
2013-04-18 01:16:00,33.9,32.9,29.91,NE,46,5.0,8.0,96,0.02,,,0.03,VWS V14.01,2013-04-18 06:16:00,
2013-04-18 01:21:00,34.0,33.0,29.91,NE,53,3.0,8.0,96,0.02,,,0.03,VWS V14.01,2013-04-18 06:21:00,
2013-04-18 01:27:00,34.0,33.0,29.91,NE,51,6.0,9.0,96,0.02,,,0.03,VWS V14.01,2013-04-18 06:27:00,
2013-04-18 01:30:00,34.0,33.0,29.90,ENE,57,4.0,9.0,96,0.02,,,0.03,VWS V14.01,2013-04-18 06:30:00,
2013-04-18 01:32:00,34.0,33.0,29.90,NNE,32,4.0,8.0,96,0.02,,,0.03,VWS V14.01,2013-04-18 06:32:00,
2013-04-18 01:37:00,34.0,33.0,29.90,NE,49,7.0,10.0,96,0.03,,,0.04,VWS V14.01,2013-04-18 06:37:00,
2013-04-18 01:42:00,34.0,33.0,29.90,NE,53,2.0,10.0,96,0.03,,,0.04,VWS V14.01,2013-04-18 06:42:00,
2013-04-18 01:45:00,34.0,33.0,29.90,NE,54,3.0,10.0,96,0.03,,,0.04,VWS V14.01,2013-04-18 06:45:00,
2013-04-18 01:47:00,34.0,33.0,29.89,NE,46,11.0,11.0,96,0.02,,,0.04,VWS V14.01,2013-04-18 06:47:00,
2013-04-18 01:52:00,33.9,32.9,29.88,ENE,65,2.0,11.0,96,0.02,,,0.04,VWS V14.01,2013-04-18 06:52:00,
2013-04-18 01:57:00,33.8,32.8,29.88,NE,40,8.0,11.0,96,0.02,,,0.04,VWS V14.01,2013-04-18 06:57:00,
2013-04-18 02:00:00,33.8,32.8,29.88,ENE,59,6.0,11.0,96,0.02,,,0.04,VWS V14.01,2013-04-18 07:00:00,
2013-04-18 02:03:00,33.8,32.8,29.87,NE,51,5.0,8.0,96,0.01,,,0.04,VWS V14.01,2013-04-18 07:03:00,
2013-04-18 02:08:00,33.6,32.6,29.87,ENE,57,2.0,8.0,96,0.01,,,0.04,VWS V14.01,2013-04-18 07:08:00,
2013-04-18 02:13:00,33.5,32.5,29.86,NE,50,6.0,11.0,96,0.01,,,0.04,VWS V14.01,2013-04-18 07:13:00,
2013-04-18 02:15:00,33.5,32.5,29.86,NE,48,5.0,11.0,96,0.01,,,0.04,VWS V14.01,2013-04-18 07:15:00,
2013-04-18 02:18:00,33.4,32.4,29.85,NNE,32,5.0,10.0,96,0.01,,,0.04,VWS V14.01,2013-04-18 07:18:00,
2013-04-18 02:23:00,33.4,32.4,29.86,NE,44,6.0,10.0,96,0.01,,,0.04,VWS V14.01,2013-04-18 07:23:00,
2013-04-18 02:28:00,33.3,32.3,29.85,NE,54,7.0,10.0,96,0.01,,,0.04,VWS V14.01,2013-04-18 07:28:00,
2013-04-18 02:30:00,33.3,32.3,29.85,NE,46,5.0,10.0,96,0.01,,,0.04,VWS V14.01,2013-04-18 07:30:00,
2013-04-18 02:34:00,33.3,32.3,29.85,NE,54,3.0,11.0,96,0.01,,,0.04,VWS V14.01,2013-04-18 07:34:00,
2013-04-18 02:39:00,33.3,32.3,29.85,ENE,67,8.0,11.0,96,0.01,,,0.04,VWS V14.01,2013-04-18 07:39:00,
2013-04-18 02:44:00,33.2,32.2,29.84,NE,49,8.0,8.0,96,0.00,,,0.04,VWS V14.01,2013-04-18 07:44:00,
2013-04-18 02:45:00,33.3,32.3,29.84,NE,53,7.0,13.0,96,0.01,,,0.04,VWS V14.01,2013-04-18 07:45:00,
2013-04-18 02:49:00,33.2,32.2,29.85,ENE,71,6.0,10.0,96,0.00,,,0.04,VWS V14.01,2013-04-18 07:49:00,
2013-04-18 02:54:00,33.3,32.3,29.86,NE,40,8.0,10.0,96,0.00,,,0.04,VWS V14.01,2013-04-18 07:54:00,
2013-04-18 02:59:00,33.3,32.3,29.86,ENE,68,5.0,8.0,96,0.00,,,0.04,VWS V14.01,2013-04-18 07:59:00,
2013-04-18 03:00:00,33.3,32.3,29.86,ENE,60,7.0,11.0,96,0.00,,,0.04,VWS V14.01,2013-04-18 08:00:00,
2013-04-18 03:04:00,33.3,32.3,29.85,NE,56,6.0,8.0,96,0.00,,,0.04,VWS V14.01,2013-04-18 08:04:00,
2013-04-18 03:09:00,33.3,32.3,29.86,NE,54,6.0,8.0,96,0.00,,,0.04,VWS V14.01,2013-04-18 08:09:00,
2013-04-18 03:15:00,33.3,32.3,29.87,NE,42,3.0,4.0,96,0.00,,,0.04,VWS V14.01,2013-04-18 08:15:00,
2013-04-18 03:20:00,33.3,32.3,29.87,NE,37,3.0,8.0,96,0.00,,,0.04,VWS V14.01,2013-04-18 08:20:00,
2013-04-18 03:25:00,33.3,32.3,29.87,ENE,58,8.0,8.0,96,0.00,,,0.04,VWS V14.01,2013-04-18 08:25:00,
2013-04-18 03:30:00,33.2,32.2,29.86,NE,34,3.0,7.0,96,0.00,,,0.04,VWS V14.01,2013-04-18 08:30:00,
2013-04-18 03:35:00,33.2,32.2,29.85,North,5,5.0,8.0,96,0.00,,,0.04,VWS V14.01,2013-04-18 08:35:00,
2013-04-18 03:40:00,33.2,32.2,29.86,NE,38,1.0,8.0,96,0.00,,,0.04,VWS V14.01,2013-04-18 08:40:00,
2013-04-18 03:45:00,33.2,32.2,29.86,North,5,5.0,8.0,96,0.00,,,0.04,VWS V14.01,2013-04-18 08:45:00,
2013-04-18 03:51:00,33.2,32.2,29.86,NNE,28,3.0,8.0,96,0.00,,,0.04,VWS V14.01,2013-04-18 08:51:00,
2013-04-18 03:56:00,33.2,32.2,29.85,NE,36,8.0,8.0,96,0.00,,,0.04,VWS V14.01,2013-04-18 08:56:00,
2013-04-18 04:00:00,33.1,32.1,29.85,NE,43,4.0,8.0,96,0.01,,,0.05,VWS V14.01,2013-04-18 09:00:00,
2013-04-18 04:01:00,33.1,32.1,29.85,North,5,4.0,5.0,96,0.01,,,0.05,VWS V14.01,2013-04-18 09:01:00,
2013-04-18 04:06:00,33.1,32.1,29.85,NE,42,2.0,7.0,96,0.01,,,0.05,VWS V14.01,2013-04-18 09:06:00,
2013-04-18 04:11:00,33.1,32.1,29.85,NE,37,3.0,7.0,96,0.01,,,0.05,VWS V14.01,2013-04-18 09:11:00,
2013-04-18 04:15:00,33.1,32.1,29.85,NE,51,5.0,7.0,96,0.01,,,0.05,VWS V14.01,2013-04-18 09:15:00,
2013-04-18 04:16:00,33.1,32.1,29.85,NE,40,3.0,6.0,96,0.01,,,0.05,VWS V14.01,2013-04-18 09:16:00,
2013-04-18 04:21:00,33.1,32.1,29.85,NE,54,2.0,6.0,96,0.01,,,0.05,VWS V14.01,2013-04-18 09:21:00,
2013-04-18 04:26:00,33.0,32.0,29.85,North,5,3.0,6.0,96,0.01,,,0.05,VWS V14.01,2013-04-18 09:26:00,
2013-04-18 04:30:00,33.0,32.0,29.85,North,355,4.0,6.0,96,0.01,,,0.05,VWS V14.01,2013-04-18 09:30:00,
2013-04-18 04:31:00,33.1,32.1,29.85,ENE,63,2.0,4.0,96,0.01,,,0.05,VWS V14.01,2013-04-18 09:31:00,
2013-04-18 04:36:00,33.0,32.0,29.85,North,5,3.0,5.0,96,0.01,,,0.05,VWS V14.01,2013-04-18 09:36:00,
2013-04-18 04:41:00,33.0,32.0,29.86,North,360,4.0,5.0,96,0.01,,,0.05,VWS V14.01,2013-04-18 09:41:00,
2013-04-18 04:45:00,33.0,32.0,29.86,NNE,24,3.0,5.0,96,0.01,,,0.05,VWS V14.01,2013-04-18 09:45:00,
2013-04-18 04:47:00,33.0,32.0,29.86,NNE,24,2.0,5.0,96,0.01,,,0.05,VWS V14.01,2013-04-18 09:47:00,
2013-04-18 04:52:00,32.9,31.9,29.86,North,355,4.0,6.0,96,0.01,,,0.05,VWS V14.01,2013-04-18 09:52:00,
2013-04-18 04:57:00,32.8,31.8,29.86,North,11,2.0,6.0,96,0.01,,,0.05,VWS V14.01,2013-04-18 09:57:00,
2013-04-18 05:00:00,32.8,31.8,29.86,NNE,13,2.0,6.0,96,0.01,,,0.05,VWS V14.01,2013-04-18 10:00:00,
2013-04-18 05:02:00,32.7,31.7,29.86,NNW,344,3.0,5.0,96,0.00,,,0.05,VWS V14.01,2013-04-18 10:02:00,
2013-04-18 05:07:00,32.7,31.7,29.86,North,9,4.0,6.0,96,0.00,,,0.05,VWS V14.01,2013-04-18 10:07:00,
2013-04-18 05:13:00,32.6,31.6,29.86,NE,46,4.0,7.0,96,0.00,,,0.05,VWS V14.01,2013-04-18 10:13:00,
2013-04-18 05:15:00,32.6,31.6,29.86,NNE,13,5.0,7.0,96,0.01,,,0.06,VWS V14.01,2013-04-18 10:15:00,
2013-04-18 05:18:00,32.6,31.6,29.86,North,355,3.0,5.0,96,0.01,,,0.06,VWS V14.01,2013-04-18 10:18:00,
2013-04-18 05:23:00,32.6,31.6,29.85,NNE,19,3.0,6.0,96,0.01,,,0.06,VWS V14.01,2013-04-18 10:23:00,
2013-04-18 05:28:00,32.5,31.5,29.84,North,11,3.0,6.0,96,0.01,,,0.06,VWS V14.01,2013-04-18 10:28:00,
2013-04-18 05:30:00,32.5,31.5,29.84,North,11,4.0,6.0,96,0.01,,,0.06,VWS V14.01,2013-04-18 10:30:00,
2013-04-18 05:33:00,32.4,31.4,29.84,NNW,348,5.0,8.0,96,0.01,,,0.06,VWS V14.01,2013-04-18 10:33:00,
2013-04-18 05:38:00,32.3,31.3,29.83,North,360,4.0,8.0,96,0.01,,,0.06,VWS V14.01,2013-04-18 10:38:00,
2013-04-18 05:43:00,32.3,31.3,29.82,NNE,18,4.0,8.0,96,0.01,,,0.06,VWS V14.01,2013-04-18 10:43:00,
2013-04-18 05:45:00,32.3,31.3,29.82,ENE,76,4.0,8.0,96,0.01,,,0.06,VWS V14.01,2013-04-18 10:45:00,
2013-04-18 05:49:00,32.3,31.3,29.82,NNE,22,6.0,6.0,96,0.01,,,0.06,VWS V14.01,2013-04-18 10:49:00,
2013-04-18 05:54:00,32.3,31.3,29.82,NNE,30,2.0,7.0,96,0.01,,,0.06,VWS V14.01,2013-04-18 10:54:00,
2013-04-18 05:59:00,32.3,31.3,29.82,NNE,26,7.0,7.0,96,0.01,,,0.06,VWS V14.01,2013-04-18 10:59:00,
2013-04-18 06:00:00,32.3,31.3,29.82,NNE,17,5.0,7.0,96,0.01,,,0.06,VWS V14.01,2013-04-18 11:00:00,
2013-04-18 06:04:00,32.3,31.3,29.82,NNE,22,4.0,7.0,96,0.01,,,0.06,VWS V14.01,2013-04-18 11:04:00,
2013-04-18 06:09:00,32.3,31.3,29.81,NE,54,3.0,7.0,96,0.01,,,0.06,VWS V14.01,2013-04-18 11:09:00,
2013-04-18 06:14:00,32.2,31.2,29.80,NE,39,8.0,8.0,96,0.00,,,0.06,VWS V14.01,2013-04-18 11:14:00,
2013-04-18 06:15:00,32.2,31.2,29.80,NE,55,7.0,7.0,96,0.01,,,0.06,VWS V14.01,2013-04-18 11:15:00,
2013-04-18 06:19:00,32.2,31.2,29.80,NE,45,8.0,8.0,96,0.00,,,0.06,VWS V14.01,2013-04-18 11:19:00,
2013-04-18 06:24:00,32.1,31.1,29.79,NE,45,6.0,11.0,96,0.00,,,0.06,VWS V14.01,2013-04-18 11:24:00,
2013-04-18 06:29:00,32.1,31.1,29.79,NE,45,2.0,4.0,96,0.00,,,0.06,VWS V14.01,2013-04-18 11:29:00,
2013-04-18 06:30:00,32.1,31.1,29.79,NE,45,3.0,11.0,96,0.00,,,0.06,VWS V14.01,2013-04-18 11:30:00,
2013-04-18 06:34:00,32.1,31.1,29.79,NE,45,3.0,10.0,96,0.00,,,0.06,VWS V14.01,2013-04-18 11:34:00,
2013-04-18 06:39:00,32.1,31.1,29.80,NE,45,2.0,10.0,96,0.00,,,0.06,VWS V14.01,2013-04-18 11:39:00,
2013-04-18 06:45:00,32.1,31.1,29.80,NE,45,0.0,4.0,96,0.00,,,0.06,VWS V14.01,2013-04-18 11:45:00,
2013-04-18 06:50:00,32.0,31.0,29.79,NE,45,3.0,8.0,96,0.00,,,0.06,VWS V14.01,2013-04-18 11:50:00,
2013-04-18 06:55:00,32.0,31.0,29.79,NE,45,4.0,8.0,96,0.00,,,0.06,VWS V14.01,2013-04-18 11:55:00,
2013-04-18 07:00:00,32.0,31.0,29.81,NE,45,4.0,6.0,96,0.00,,,0.06,VWS V14.01,2013-04-18 12:00:00,
2013-04-18 07:05:00,31.9,30.9,29.81,NE,45,5.0,6.0,96,0.00,,,0.06,VWS V14.01,2013-04-18 12:05:00,
2013-04-18 07:10:00,31.9,30.9,29.80,NE,45,2.0,7.0,96,0.00,,,0.06,VWS V14.01,2013-04-18 12:10:00,
2013-04-18 07:15:00,31.9,30.6,29.79,NE,45,6.0,10.0,95,0.00,,,0.06,VWS V14.01,2013-04-18 12:15:00,
2013-04-18 07:21:00,31.9,30.6,29.77,NE,45,4.0,10.0,95,0.00,,,0.06,VWS V14.01,2013-04-18 12:21:00,
2013-04-18 07:26:00,31.9,30.9,29.76,NE,45,3.0,10.0,96,0.00,,,0.06,VWS V14.01,2013-04-18 12:26:00,
2013-04-18 07:30:00,31.9,30.6,29.77,NE,45,6.0,11.0,95,0.00,,,0.06,VWS V14.01,2013-04-18 12:30:00,
2013-04-18 07:31:00,31.8,30.8,29.78,NE,45,5.0,6.0,96,0.00,,,0.06,VWS V14.01,2013-04-18 12:31:00,
2013-04-18 07:36:00,31.8,30.8,29.80,NE,45,3.0,6.0,96,0.00,,,0.06,VWS V14.01,2013-04-18 12:36:00,
2013-04-18 07:41:00,31.9,30.6,29.80,NE,45,3.0,6.0,95,0.00,,,0.06,VWS V14.01,2013-04-18 12:41:00,
2013-04-18 07:45:00,31.9,30.6,29.80,NE,45,2.0,6.0,95,0.00,,,0.06,VWS V14.01,2013-04-18 12:45:00,
2013-04-18 07:47:00,31.9,30.6,29.80,NE,45,3.0,5.0,95,0.00,,,0.06,VWS V14.01,2013-04-18 12:47:00,
2013-04-18 07:52:00,31.8,30.5,29.81,NE,45,4.0,7.0,95,0.00,,,0.06,VWS V14.01,2013-04-18 12:52:00,
2013-04-18 07:57:00,31.7,30.4,29.80,NE,45,4.0,7.0,95,0.00,,,0.06,VWS V14.01,2013-04-18 12:57:00,
2013-04-18 08:00:00,31.7,30.4,29.80,NE,45,5.0,8.0,95,0.00,,,0.06,VWS V14.01,2013-04-18 13:00:00,
2013-04-18 08:02:00,31.7,30.4,29.79,NE,45,4.0,8.0,95,0.00,,,0.06,VWS V14.01,2013-04-18 13:02:00,
2013-04-18 08:07:00,31.7,30.4,29.78,NE,45,4.0,8.0,95,0.00,,,0.06,VWS V14.01,2013-04-18 13:07:00,
2013-04-18 08:12:00,31.7,30.2,29.78,NE,45,3.0,10.0,94,0.00,,,0.06,VWS V14.01,2013-04-18 13:12:00,
2013-04-18 08:15:00,31.7,30.2,29.78,NE,45,5.0,10.0,94,0.00,,,0.06,VWS V14.01,2013-04-18 13:15:00,
2013-04-18 08:17:00,31.7,30.2,29.78,NE,45,6.0,7.0,94,0.00,,,0.06,VWS V14.01,2013-04-18 13:17:00,
2013-04-18 08:22:00,31.7,30.2,29.77,NE,45,6.0,8.0,94,0.00,,,0.06,VWS V14.01,2013-04-18 13:22:00,
2013-04-18 08:27:00,31.7,30.2,29.77,NE,45,4.0,10.0,94,0.00,,,0.06,VWS V14.01,2013-04-18 13:27:00,
2013-04-18 08:30:00,31.7,30.2,29.76,NE,45,7.0,10.0,94,0.00,,,0.06,VWS V14.01,2013-04-18 13:30:00,
2013-04-18 08:32:00,31.7,30.2,29.76,NE,45,6.0,10.0,94,0.00,,,0.06,VWS V14.01,2013-04-18 13:32:00,
2013-04-18 08:37:00,31.7,30.2,29.76,NE,45,7.0,11.0,94,0.00,,,0.06,VWS V14.01,2013-04-18 13:37:00,
2013-04-18 08:42:00,31.7,30.2,29.75,NE,45,5.0,11.0,94,0.00,,,0.06,VWS V14.01,2013-04-18 13:42:00,
2013-04-18 08:45:00,31.7,30.2,29.75,NE,45,8.0,11.0,94,0.00,,,0.06,VWS V14.01,2013-04-18 13:45:00,
2013-04-18 08:47:00,31.7,30.2,29.74,NE,45,5.0,10.0,94,0.00,,,0.06,VWS V14.01,2013-04-18 13:47:00,
2013-04-18 08:52:00,31.7,30.2,29.73,NE,45,12.0,12.0,94,0.00,,,0.06,VWS V14.01,2013-04-18 13:52:00,
2013-04-18 08:57:00,31.7,30.2,29.72,NE,45,8.0,13.0,94,0.00,,,0.06,VWS V14.01,2013-04-18 13:57:00,
2013-04-18 09:00:00,31.7,30.2,29.72,NE,45,14.0,14.0,94,0.00,,,0.06,VWS V14.01,2013-04-18 14:00:00,
2013-04-18 09:03:00,31.8,30.3,29.72,NE,45,5.0,14.0,94,0.00,,,0.06,VWS V14.01,2013-04-18 14:03:00,
2013-04-18 09:08:00,31.9,30.4,29.71,NE,45,7.0,14.0,94,0.00,,,0.06,VWS V14.01,2013-04-18 14:08:00,
2013-04-18 09:13:00,31.9,30.1,29.71,NE,45,5.0,14.0,93,0.00,,,0.06,VWS V14.01,2013-04-18 14:13:00,
2013-04-18 09:15:00,31.9,30.4,29.71,NE,45,6.0,14.0,94,0.00,,,0.06,VWS V14.01,2013-04-18 14:15:00,
2013-04-18 09:18:00,31.9,30.4,29.71,NE,45,7.0,10.0,94,0.00,,,0.06,VWS V14.01,2013-04-18 14:18:00,
2013-04-18 09:23:00,32.0,30.2,29.71,NE,45,8.0,12.0,93,0.00,,,0.06,VWS V14.01,2013-04-18 14:23:00,
2013-04-18 09:28:00,32.0,30.2,29.72,NE,45,7.0,12.0,93,0.00,,,0.06,VWS V14.01,2013-04-18 14:28:00,
2013-04-18 09:30:00,32.0,30.2,29.72,NE,45,6.0,12.0,93,0.00,,,0.06,VWS V14.01,2013-04-18 14:30:00,
2013-04-18 09:33:00,32.1,30.3,29.72,NE,45,10.0,14.0,93,0.00,,,0.06,VWS V14.01,2013-04-18 14:33:00,
2013-04-18 09:39:00,32.1,30.3,29.70,NE,45,6.0,14.0,93,0.00,,,0.06,VWS V14.01,2013-04-18 14:39:00,
2013-04-18 09:44:00,32.1,30.3,29.71,NE,45,6.0,14.0,93,0.00,,,0.06,VWS V14.01,2013-04-18 14:44:00,
2013-04-18 09:45:00,32.1,30.3,29.71,NE,45,6.0,14.0,93,0.00,,,0.06,VWS V14.01,2013-04-18 14:45:00,
2013-04-18 09:49:00,32.2,30.4,29.74,NE,45,4.0,12.0,93,0.00,,,0.06,VWS V14.01,2013-04-18 14:49:00,
2013-04-18 09:54:00,32.2,30.1,29.74,NE,45,6.0,12.0,92,0.00,,,0.06,VWS V14.01,2013-04-18 14:54:00,
2013-04-18 09:59:00,32.2,30.1,29.72,NE,45,13.0,15.0,92,0.00,,,0.06,VWS V14.01,2013-04-18 14:59:00,
2013-04-18 10:00:00,32.3,30.2,29.73,NE,45,13.0,13.0,92,0.00,,,0.06,VWS V14.01,2013-04-18 15:00:00,
2013-04-18 10:04:00,32.3,30.2,29.72,NE,45,2.0,15.0,92,0.00,,,0.06,VWS V14.01,2013-04-18 15:04:00,
2013-04-18 10:09:00,32.3,30.2,29.71,NE,45,8.0,15.0,92,0.00,,,0.06,VWS V14.01,2013-04-18 15:09:00,
2013-04-18 10:14:00,32.3,30.2,29.70,NE,45,8.0,8.0,92,0.00,,,0.06,VWS V14.01,2013-04-18 15:14:00,
2013-04-18 10:15:00,32.3,30.2,29.70,NE,45,5.0,15.0,92,0.00,,,0.06,VWS V14.01,2013-04-18 15:15:00,
2013-04-18 10:20:00,32.3,30.2,29.70,NE,45,8.0,14.0,92,0.00,,,0.06,VWS V14.01,2013-04-18 15:20:00,
2013-04-18 10:25:00,32.3,30.2,29.72,NE,45,3.0,14.0,92,0.00,,,0.06,VWS V14.01,2013-04-18 15:25:00,
2013-04-18 10:30:00,32.3,30.5,29.73,NE,45,6.0,10.0,93,0.00,,,0.06,VWS V14.01,2013-04-18 15:30:00,
2013-04-18 10:35:00,32.4,30.6,29.73,NE,45,5.0,10.0,93,0.00,,,0.06,VWS V14.01,2013-04-18 15:35:00,
2013-04-18 10:40:00,32.4,30.6,29.72,NE,45,6.0,10.0,93,0.00,,,0.06,VWS V14.01,2013-04-18 15:40:00,
2013-04-18 10:45:00,32.4,30.6,29.72,NE,45,6.0,10.0,93,0.00,,,0.06,VWS V14.01,2013-04-18 15:45:00,
2013-04-18 10:50:00,32.3,30.5,29.73,NE,45,6.0,10.0,93,0.00,,,0.06,VWS V14.01,2013-04-18 15:50:00,
2013-04-18 10:55:00,32.3,30.5,29.71,NE,45,6.0,10.0,93,0.00,,,0.06,VWS V14.01,2013-04-18 15:55:00,
2013-04-18 11:00:00,32.3,30.8,29.70,NE,45,5.0,10.0,94,0.00,,,0.06,VWS V14.01,2013-04-18 16:00:00,
2013-04-18 11:01:00,32.3,30.8,29.70,NE,45,6.0,10.0,94,0.00,,,0.06,VWS V14.01,2013-04-18 16:01:00,
2013-04-18 11:06:00,32.3,30.8,29.68,NE,45,5.0,10.0,94,0.00,,,0.06,VWS V14.01,2013-04-18 16:06:00,
2013-04-18 11:11:00,32.2,30.7,29.68,NE,45,6.0,10.0,94,0.00,,,0.06,VWS V14.01,2013-04-18 16:11:00,
2013-04-18 11:15:00,32.2,30.7,29.69,NE,45,3.0,10.0,94,0.00,,,0.06,VWS V14.01,2013-04-18 16:15:00,
2013-04-18 11:16:00,32.2,30.7,29.69,NE,45,2.0,8.0,94,0.00,,,0.06,VWS V14.01,2013-04-18 16:16:00,
2013-04-18 11:21:00,32.1,30.6,29.70,NE,45,3.0,10.0,94,0.00,,,0.06,VWS V14.01,2013-04-18 16:21:00,
2013-04-18 11:26:00,32.1,30.8,29.70,NE,45,2.0,10.0,95,0.00,,,0.06,VWS V14.01,2013-04-18 16:26:00,
2013-04-18 11:30:00,32.1,30.8,29.69,NE,45,6.0,10.0,95,0.00,,,0.06,VWS V14.01,2013-04-18 16:30:00,
2013-04-18 11:31:00,32.1,30.8,29.68,NE,45,6.0,7.0,95,0.00,,,0.06,VWS V14.01,2013-04-18 16:31:00,
2013-04-18 11:37:00,32.0,30.7,29.68,NE,45,6.0,8.0,95,0.00,,,0.06,VWS V14.01,2013-04-18 16:37:00,
2013-04-18 11:42:00,32.1,30.8,29.70,NE,45,2.0,8.0,95,0.00,,,0.06,VWS V14.01,2013-04-18 16:42:00,
2013-04-18 11:45:00,32.0,30.7,29.70,NE,45,4.0,8.0,95,0.00,,,0.06,VWS V14.01,2013-04-18 16:45:00,
2013-04-18 11:47:00,32.0,30.7,29.70,NE,45,4.0,4.0,95,0.00,,,0.06,VWS V14.01,2013-04-18 16:47:00,
2013-04-18 11:52:00,32.0,30.7,29.69,NE,45,3.0,6.0,95,0.00,,,0.06,VWS V14.01,2013-04-18 16:52:00,
2013-04-18 11:57:00,32.0,30.7,29.69,NE,45,3.0,6.0,95,0.00,,,0.06,VWS V14.01,2013-04-18 16:57:00,
2013-04-18 12:00:00,32.0,31.0,29.69,NE,45,3.0,6.0,96,0.00,,,0.06,VWS V14.01,2013-04-18 17:00:00,
2013-04-18 12:02:00,32.0,31.0,29.68,NE,45,4.0,6.0,96,0.00,,,0.06,VWS V14.01,2013-04-18 17:02:00,
2013-04-18 12:07:00,32.0,31.0,29.67,NE,45,3.0,7.0,96,0.00,,,0.06,VWS V14.01,2013-04-18 17:07:00,
2013-04-18 12:12:00,31.9,30.9,29.67,NE,45,3.0,7.0,96,0.00,,,0.06,VWS V14.01,2013-04-18 17:12:00,
2013-04-18 12:15:00,32.0,31.0,29.68,NE,45,3.0,7.0,96,0.00,,,0.06,VWS V14.01,2013-04-18 17:15:00,
2013-04-18 12:17:00,32.0,31.0,29.66,NE,45,4.0,6.0,96,0.00,,,0.06,VWS V14.01,2013-04-18 17:17:00,
2013-04-18 12:23:00,32.0,31.0,29.67,NE,45,2.0,7.0,96,0.00,,,0.06,VWS V14.01,2013-04-18 17:23:00,
2013-04-18 12:28:00,32.0,31.0,29.68,NE,45,3.0,7.0,96,0.00,,,0.06,VWS V14.01,2013-04-18 17:28:00,
2013-04-18 12:30:00,32.0,31.0,29.67,NE,45,3.0,7.0,96,0.00,,,0.06,VWS V14.01,2013-04-18 17:30:00,
2013-04-18 12:33:00,32.0,31.0,29.67,NE,45,3.0,7.0,96,0.00,,,0.06,VWS V14.01,2013-04-18 17:33:00,
2013-04-18 12:38:00,32.0,31.0,29.68,NE,45,1.0,7.0,96,0.00,,,0.06,VWS V14.01,2013-04-18 17:38:00,
2013-04-18 12:43:00,32.1,31.1,29.69,NE,45,3.0,7.0,96,0.00,,,0.06,VWS V14.01,2013-04-18 17:43:00,
2013-04-18 12:45:00,32.1,31.1,29.69,NE,45,3.0,7.0,96,0.00,,,0.06,VWS V14.01,2013-04-18 17:45:00,
2013-04-18 12:48:00,32.1,31.1,29.68,NE,45,3.0,6.0,96,0.00,,,0.06,VWS V14.01,2013-04-18 17:48:00,
2013-04-18 12:53:00,32.1,31.1,29.67,NE,45,3.0,6.0,96,0.00,,,0.06,VWS V14.01,2013-04-18 17:53:00,
2013-04-18 12:58:00,32.0,31.0,29.67,NE,44,1.0,6.0,96,0.00,,,0.06,VWS V14.01,2013-04-18 17:58:00,
2013-04-18 13:00:00,32.1,31.1,29.67,NE,44,4.0,6.0,96,0.00,,,0.06,VWS V14.01,2013-04-18 18:00:00,
2013-04-18 13:03:00,32.0,31.0,29.66,NE,44,3.0,5.0,96,0.00,,,0.06,VWS V14.01,2013-04-18 18:03:00,
2013-04-18 13:09:00,32.1,31.1,29.65,NE,44,5.0,5.0,96,0.00,,,0.06,VWS V14.01,2013-04-18 18:09:00,
2013-04-18 13:14:00,32.1,31.1,29.65,NE,44,5.0,5.0,96,0.00,,,0.06,VWS V14.01,2013-04-18 18:14:00,
2013-04-18 13:15:00,32.1,31.1,29.65,NE,44,4.0,7.0,96,0.00,,,0.06,VWS V14.01,2013-04-18 18:15:00,
2013-04-18 13:19:00,32.1,31.1,29.64,NE,44,4.0,7.0,96,0.00,,,0.06,VWS V14.01,2013-04-18 18:19:00,
2013-04-18 13:24:00,32.2,31.2,29.63,NE,44,6.0,7.0,96,0.01,,,0.07,VWS V14.01,2013-04-18 18:24:00,
2013-04-18 13:29:00,32.2,31.2,29.64,NE,41,5.0,6.0,96,0.01,,,0.07,VWS V14.01,2013-04-18 18:29:00,
2013-04-18 13:30:00,32.2,31.2,29.64,NE,41,6.0,8.0,96,0.01,,,0.07,VWS V14.01,2013-04-18 18:30:00,
2013-04-18 13:34:00,32.1,31.1,29.64,NE,40,4.0,7.0,96,0.01,,,0.07,VWS V14.01,2013-04-18 18:34:00,
2013-04-18 13:39:00,32.1,31.1,29.64,NE,40,6.0,7.0,96,0.01,,,0.07,VWS V14.01,2013-04-18 18:39:00,
2013-04-18 13:44:00,32.1,31.1,29.65,NE,40,3.0,4.0,96,0.01,,,0.07,VWS V14.01,2013-04-18 18:44:00,
2013-04-18 13:45:00,32.1,31.1,29.65,NE,40,4.0,7.0,96,0.01,,,0.07,VWS V14.01,2013-04-18 18:45:00,
2013-04-18 13:49:00,32.1,31.1,29.64,NE,40,4.0,8.0,96,0.01,,,0.07,VWS V14.01,2013-04-18 18:49:00,
2013-04-18 13:54:00,32.1,31.1,29.65,NE,40,2.0,8.0,96,0.01,,,0.07,VWS V14.01,2013-04-18 18:54:00,
2013-04-18 13:59:00,32.1,31.1,29.65,NE,40,7.0,7.0,96,0.01,,,0.07,VWS V14.01,2013-04-18 18:59:00,
2013-04-18 14:00:00,32.1,31.1,29.65,NE,40,4.0,8.0,96,0.01,,,0.07,VWS V14.01,2013-04-18 19:00:00,
2013-04-18 14:04:00,32.0,31.0,29.63,NE,40,5.0,7.0,96,0.01,,,0.07,VWS V14.01,2013-04-18 19:04:00,
2013-04-18 14:09:00,32.0,31.0,29.61,NE,40,6.0,8.0,96,0.01,,,0.07,VWS V14.01,2013-04-18 19:09:00,
2013-04-18 14:14:00,32.0,31.0,29.61,NE,40,5.0,6.0,96,0.01,,,0.07,VWS V14.01,2013-04-18 19:14:00,
2013-04-18 14:15:00,32.0,31.0,29.61,NE,40,5.0,9.0,96,0.01,,,0.07,VWS V14.01,2013-04-18 19:15:00,
2013-04-18 14:19:00,32.0,31.0,29.62,NE,40,3.0,7.0,96,0.01,,,0.07,VWS V14.01,2013-04-18 19:19:00,
2013-04-18 14:24:00,32.0,31.0,29.63,NE,40,3.0,9.0,96,0.01,,,0.07,VWS V14.01,2013-04-18 19:24:00,
2013-04-18 14:30:00,32.0,31.0,29.64,NE,40,4.0,7.0,96,0.00,,,0.07,VWS V14.01,2013-04-18 19:30:00,
2013-04-18 14:35:00,31.9,30.9,29.63,NE,40,6.0,7.0,96,0.00,,,0.07,VWS V14.01,2013-04-18 19:35:00,
2013-04-18 14:40:00,31.9,30.9,29.61,NE,40,6.0,7.0,96,0.00,,,0.07,VWS V14.01,2013-04-18 19:40:00,
2013-04-18 14:45:00,31.9,30.9,29.59,NE,40,3.0,7.0,96,0.01,,,0.08,VWS V14.01,2013-04-18 19:45:00,
2013-04-18 14:50:00,31.9,30.9,29.59,NE,39,6.0,9.0,96,0.01,,,0.08,VWS V14.01,2013-04-18 19:50:00,
2013-04-18 14:55:00,31.9,30.9,29.59,NE,39,5.0,9.0,96,0.01,,,0.08,VWS V14.01,2013-04-18 19:55:00,
2013-04-18 15:00:00,31.9,30.9,29.60,NE,39,5.0,6.0,96,0.01,,,0.08,VWS V14.01,2013-04-18 20:00:00,
2013-04-18 15:05:00,31.9,30.9,29.62,NE,39,3.0,6.0,96,0.01,,,0.08,VWS V14.01,2013-04-18 20:05:00,
2013-04-18 15:10:00,32.0,31.0,29.61,NE,39,5.0,7.0,96,0.01,,,0.08,VWS V14.01,2013-04-18 20:10:00,
2013-04-18 15:15:00,31.9,30.9,29.60,NE,39,5.0,6.0,96,0.01,,,0.08,VWS V14.01,2013-04-18 20:15:00,
2013-04-18 15:20:00,32.0,31.0,29.61,NE,38,4.0,6.0,96,0.01,,,0.08,VWS V14.01,2013-04-18 20:20:00,
2013-04-18 15:26:00,32.0,31.0,29.61,NE,36,5.0,7.0,96,0.01,,,0.08,VWS V14.01,2013-04-18 20:26:00,
2013-04-18 15:30:00,32.0,31.0,29.61,NE,35,3.0,7.0,96,0.01,,,0.08,VWS V14.01,2013-04-18 20:30:00,
2013-04-18 15:31:00,32.0,31.0,29.61,NNE,32,5.0,8.0,96,0.01,,,0.08,VWS V14.01,2013-04-18 20:31:00,
2013-04-18 15:36:00,32.0,31.2,29.62,NNE,28,6.0,8.0,97,0.01,,,0.08,VWS V14.01,2013-04-18 20:36:00,
2013-04-18 15:41:00,32.1,31.4,29.61,NNE,26,4.0,8.0,97,0.01,,,0.08,VWS V14.01,2013-04-18 20:41:00,
2013-04-18 15:45:00,32.1,31.4,29.61,NNE,23,4.0,8.0,97,0.01,,,0.08,VWS V14.01,2013-04-18 20:45:00,
2013-04-18 15:46:00,32.2,31.5,29.61,NNE,19,3.0,3.0,97,0.00,,,0.08,VWS V14.01,2013-04-18 20:46:00,
2013-04-18 15:51:00,32.3,31.3,29.60,NNE,13,5.0,7.0,96,0.00,,,0.08,VWS V14.01,2013-04-18 20:51:00,
2013-04-18 15:56:00,32.3,31.3,29.60,North,360,2.0,8.0,96,0.00,,,0.08,VWS V14.01,2013-04-18 20:56:00,
2013-04-18 16:00:00,32.3,31.3,29.60,North,360,3.0,8.0,96,0.00,,,0.08,VWS V14.01,2013-04-18 21:00:00,
2013-04-18 16:02:00,32.3,31.3,29.60,North,355,4.0,5.0,96,0.00,,,0.08,VWS V14.01,2013-04-18 21:02:00,
2013-04-18 16:07:00,32.3,31.3,29.60,NNE,17,4.0,7.0,96,0.00,,,0.08,VWS V14.01,2013-04-18 21:07:00,
2013-04-18 16:12:00,32.4,31.4,29.59,NNE,16,8.0,8.0,96,0.01,,,0.09,VWS V14.01,2013-04-18 21:12:00,
2013-04-18 16:15:00,32.4,31.4,29.58,North,5,4.0,8.0,96,0.01,,,0.09,VWS V14.01,2013-04-18 21:15:00,
2013-04-18 16:17:00,32.4,31.4,29.58,North,5,6.0,9.0,96,0.01,,,0.09,VWS V14.01,2013-04-18 21:17:00,
2013-04-18 16:22:00,32.5,31.5,29.58,North,5,5.0,9.0,96,0.01,,,0.09,VWS V14.01,2013-04-18 21:22:00,
2013-04-18 16:27:00,32.5,31.5,29.59,North,11,4.0,9.0,96,0.01,,,0.09,VWS V14.01,2013-04-18 21:27:00,
2013-04-18 16:30:00,32.5,31.5,29.59,North,360,5.0,9.0,96,0.01,,,0.09,VWS V14.01,2013-04-18 21:30:00,
2013-04-18 16:32:00,32.4,31.4,29.60,North,5,5.0,6.0,96,0.01,,,0.09,VWS V14.01,2013-04-18 21:32:00,
2013-04-18 16:37:00,32.4,31.4,29.59,North,5,5.0,8.0,96,0.01,,,0.09,VWS V14.01,2013-04-18 21:37:00,
2013-04-18 16:42:00,32.4,31.6,29.58,NNE,13,5.0,8.0,97,0.01,,,0.09,VWS V14.01,2013-04-18 21:42:00,
2013-04-18 16:45:00,32.4,31.6,29.58,North,11,5.0,8.0,97,0.01,,,0.09,VWS V14.01,2013-04-18 21:45:00,
2013-04-18 16:47:00,32.4,31.6,29.57,North,5,5.0,10.0,97,0.01,,,0.09,VWS V14.01,2013-04-18 21:47:00,
2013-04-18 16:52:00,32.4,31.6,29.58,North,10,7.0,10.0,97,0.01,,,0.09,VWS V14.01,2013-04-18 21:52:00,
2013-04-18 16:57:00,32.4,31.6,29.59,North,360,4.0,10.0,97,0.01,,,0.09,VWS V14.01,2013-04-18 21:57:00,
2013-04-18 17:00:00,32.4,31.6,29.59,North,5,6.0,10.0,97,0.01,,,0.09,VWS V14.01,2013-04-18 22:00:00,
2013-04-18 17:02:00,32.3,31.5,29.58,North,5,5.0,6.0,97,0.01,,,0.09,VWS V14.01,2013-04-18 22:02:00,
2013-04-18 17:08:00,32.3,31.5,29.59,North,5,4.0,9.0,97,0.01,,,0.09,VWS V14.01,2013-04-18 22:08:00,
2013-04-18 17:13:00,32.3,31.5,29.56,North,5,4.0,9.0,97,0.02,,,0.10,VWS V14.01,2013-04-18 22:13:00,
2013-04-18 17:15:00,32.3,31.5,29.56,North,9,4.0,9.0,97,0.02,,,0.10,VWS V14.01,2013-04-18 22:15:00,
2013-04-18 17:18:00,32.3,31.5,29.57,North,11,4.0,10.0,97,0.01,,,0.10,VWS V14.01,2013-04-18 22:18:00,
2013-04-18 17:23:00,32.3,31.5,29.57,North,5,4.0,10.0,97,0.01,,,0.10,VWS V14.01,2013-04-18 22:23:00,
2013-04-18 17:28:00,32.3,31.5,29.57,North,11,5.0,10.0,97,0.01,,,0.10,VWS V14.01,2013-04-18 22:28:00,
2013-04-18 17:30:00,32.3,31.5,29.57,North,360,4.0,10.0,97,0.01,,,0.10,VWS V14.01,2013-04-18 22:30:00,
2013-04-18 17:33:00,32.3,31.5,29.56,North,349,7.0,9.0,97,0.01,,,0.10,VWS V14.01,2013-04-18 22:33:00,
2013-04-18 17:38:00,32.3,31.5,29.57,North,355,4.0,9.0,97,0.01,,,0.10,VWS V14.01,2013-04-18 22:38:00,
2013-04-18 17:43:00,32.3,31.5,29.56,NNE,12,5.0,9.0,97,0.01,,,0.10,VWS V14.01,2013-04-18 22:43:00,
2013-04-18 17:45:00,32.3,31.5,29.56,NNE,12,4.0,9.0,97,0.01,,,0.10,VWS V14.01,2013-04-18 22:45:00,
2013-04-18 17:48:00,32.3,31.5,29.57,NNE,12,4.0,8.0,97,0.01,,,0.10,VWS V14.01,2013-04-18 22:48:00,
2013-04-18 17:53:00,32.2,31.5,29.57,North,11,4.0,8.0,97,0.01,,,0.10,VWS V14.01,2013-04-18 22:53:00,
2013-04-18 17:58:00,32.2,31.5,29.57,North,11,3.0,8.0,97,0.01,,,0.10,VWS V14.01,2013-04-18 22:58:00,
2013-04-18 18:00:00,32.2,31.5,29.57,North,11,4.0,8.0,97,0.01,,,0.10,VWS V14.01,2013-04-18 23:00:00,
2013-04-18 18:03:00,32.2,31.5,29.58,North,11,4.0,5.0,97,0.01,,,0.10,VWS V14.01,2013-04-18 23:03:00,
2013-04-18 18:09:00,32.2,31.5,29.58,North,11,3.0,6.0,97,0.01,,,0.10,VWS V14.01,2013-04-18 23:09:00,
2013-04-18 18:14:00,32.2,31.5,29.58,North,11,2.0,6.0,97,0.01,,,0.10,VWS V14.01,2013-04-18 23:14:00,
2013-04-18 18:15:00,32.2,31.5,29.58,North,11,2.0,6.0,97,0.01,,,0.10,VWS V14.01,2013-04-18 23:15:00,
2013-04-18 18:19:00,32.2,31.5,29.58,North,11,2.0,5.0,97,0.00,,,0.10,VWS V14.01,2013-04-18 23:19:00,
2013-04-18 18:24:00,32.2,31.5,29.57,North,11,4.0,5.0,97,0.00,,,0.10,VWS V14.01,2013-04-18 23:24:00,
2013-04-18 18:29:00,32.1,31.4,29.56,North,11,3.0,4.0,97,0.00,,,0.10,VWS V14.01,2013-04-18 23:29:00,
2013-04-18 18:30:00,32.1,31.4,29.57,North,11,3.0,6.0,97,0.00,,,0.10,VWS V14.01,2013-04-18 23:30:00,
2013-04-18 18:34:00,32.1,31.4,29.57,North,11,2.0,4.0,97,0.01,,,0.11,VWS V14.01,2013-04-18 23:34:00,
2013-04-18 18:39:00,32.1,31.4,29.57,North,11,2.0,4.0,97,0.01,,,0.11,VWS V14.01,2013-04-18 23:39:00,
2013-04-18 18:44:00,32.1,31.4,29.58,North,11,0.0,0.0,97,0.01,,,0.11,VWS V14.01,2013-04-18 23:44:00,
2013-04-18 18:45:00,32.1,31.4,29.58,North,11,0.0,4.0,97,0.01,,,0.11,VWS V14.01,2013-04-18 23:45:00,
2013-04-18 18:49:00,32.1,31.4,29.58,North,11,0.0,0.0,97,0.01,,,0.11,VWS V14.01,2013-04-18 23:49:00,
2013-04-18 18:54:00,32.0,31.2,29.57,North,11,0.0,0.0,97,0.01,,,0.11,VWS V14.01,2013-04-18 23:54:00,
2013-04-18 18:59:00,32.0,31.2,29.57,North,11,0.0,0.0,97,0.01,,,0.11,VWS V14.01,2013-04-18 23:59:00,
2013-04-18 19:00:00,32.0,31.2,29.57,North,11,0.0,0.0,97,0.01,,,0.11,VWS V14.01,2013-04-19 00:00:00,
2013-04-18 19:04:00,32.0,31.2,29.57,North,11,0.0,0.0,97,0.01,,,0.11,VWS V14.01,2013-04-19 00:04:00,
2013-04-18 19:10:00,32.0,31.2,29.57,North,11,0.0,0.0,97,0.01,,,0.11,VWS V14.01,2013-04-19 00:10:00,
2013-04-18 19:15:00,31.9,31.1,29.58,North,11,0.0,0.0,97,0.01,,,0.11,VWS V14.01,2013-04-19 00:15:00,
2013-04-18 19:20:00,31.9,31.1,29.58,North,11,0.0,0.0,97,0.01,,,0.11,VWS V14.01,2013-04-19 00:20:00,
2013-04-18 19:25:00,31.9,31.1,29.58,North,11,0.0,0.0,97,0.01,,,0.11,VWS V14.01,2013-04-19 00:25:00,
2013-04-18 19:30:00,31.9,31.1,29.58,North,11,0.0,0.0,97,0.01,,,0.11,VWS V14.01,2013-04-19 00:30:00,
2013-04-18 19:35:00,31.8,31.0,29.58,North,11,0.0,0.0,97,0.01,,,0.11,VWS V14.01,2013-04-19 00:35:00,
2013-04-18 19:40:00,31.8,31.0,29.59,North,11,0.0,0.0,97,0.01,,,0.11,VWS V14.01,2013-04-19 00:40:00,
2013-04-18 19:45:00,31.8,31.0,29.59,North,11,0.0,0.0,97,0.00,,,0.11,VWS V14.01,2013-04-19 00:45:00,
2013-04-18 19:50:00,31.7,31.0,29.59,North,11,0.0,0.0,97,0.00,,,0.11,VWS V14.01,2013-04-19 00:50:00,
2013-04-18 19:55:00,31.7,31.0,29.59,North,11,0.0,0.0,97,0.00,,,0.11,VWS V14.01,2013-04-19 00:55:00,
2013-04-18 20:00:00,31.7,31.0,29.59,North,11,0.0,0.0,97,0.00,,,0.11,VWS V14.01,2013-04-19 01:00:00,
2013-04-18 20:06:00,31.6,30.9,29.59,North,11,0.0,0.0,97,0.00,,,0.11,VWS V14.01,2013-04-19 01:06:00,
2013-04-18 20:11:00,31.7,31.0,29.59,North,11,0.0,0.0,97,0.00,,,0.11,VWS V14.01,2013-04-19 01:11:00,
2013-04-18 20:15:00,31.6,30.9,29.58,North,11,0.0,0.0,97,0.00,,,0.11,VWS V14.01,2013-04-19 01:15:00,
2013-04-18 20:16:00,31.6,30.9,29.58,North,11,0.0,0.0,97,0.00,,,0.11,VWS V14.01,2013-04-19 01:16:00,
2013-04-18 20:21:00,31.5,30.8,29.59,North,11,0.0,0.0,97,0.00,,,0.11,VWS V14.01,2013-04-19 01:21:00,
2013-04-18 20:26:00,31.5,30.8,29.59,North,11,0.0,0.0,97,0.00,,,0.11,VWS V14.01,2013-04-19 01:26:00,
2013-04-18 20:30:00,31.5,30.8,29.59,North,11,0.0,0.0,97,0.00,,,0.11,VWS V14.01,2013-04-19 01:30:00,
2013-04-18 20:31:00,31.5,30.8,29.59,North,11,0.0,0.0,97,0.00,,,0.11,VWS V14.01,2013-04-19 01:31:00,
2013-04-18 20:36:00,31.5,30.8,29.59,North,11,0.0,0.0,97,0.00,,,0.11,VWS V14.01,2013-04-19 01:36:00,
2013-04-18 20:41:00,31.5,30.8,29.59,North,11,0.0,0.0,97,0.00,,,0.11,VWS V14.01,2013-04-19 01:41:00,
2013-04-18 20:45:00,31.5,30.8,29.59,North,11,0.0,0.0,97,0.00,,,0.11,VWS V14.01,2013-04-19 01:45:00,
2013-04-18 20:46:00,31.4,30.6,29.59,North,11,0.0,0.0,97,0.00,,,0.11,VWS V14.01,2013-04-19 01:46:00,
2013-04-18 20:51:00,31.4,30.6,29.59,North,11,0.0,0.0,97,0.00,,,0.11,VWS V14.01,2013-04-19 01:51:00,
2013-04-18 20:56:00,31.4,30.6,29.59,North,11,0.0,0.0,97,0.00,,,0.11,VWS V14.01,2013-04-19 01:56:00,
2013-04-18 21:00:00,31.3,30.5,29.59,North,11,0.0,0.0,97,0.00,,,0.11,VWS V14.01,2013-04-19 02:00:00,
2013-04-18 21:03:00,31.2,30.5,29.60,North,11,0.0,0.0,97,0.00,,,0.11,VWS V14.01,2013-04-19 02:03:00,
2013-04-18 21:08:00,31.2,30.5,29.60,North,11,0.0,0.0,97,0.00,,,0.11,VWS V14.01,2013-04-19 02:08:00,
2013-04-18 21:13:00,31.2,30.5,29.60,North,11,0.0,0.0,97,0.00,,,0.11,VWS V14.01,2013-04-19 02:13:00,
2013-04-18 21:15:00,31.2,30.5,29.60,North,11,0.0,0.0,97,0.00,,,0.11,VWS V14.01,2013-04-19 02:15:00,
2013-04-18 21:18:00,31.2,30.5,29.60,North,11,0.0,0.0,97,0.00,,,0.11,VWS V14.01,2013-04-19 02:18:00,
2013-04-18 21:23:00,31.2,30.5,29.60,North,11,0.0,0.0,97,0.00,,,0.11,VWS V14.01,2013-04-19 02:23:00,
2013-04-18 21:28:00,31.2,30.5,29.60,North,11,0.0,0.0,97,0.00,,,0.11,VWS V14.01,2013-04-19 02:28:00,
2013-04-18 21:30:00,31.2,30.5,29.60,North,11,0.0,0.0,97,0.00,,,0.11,VWS V14.01,2013-04-19 02:30:00,
2013-04-18 21:33:00,31.2,30.5,29.60,North,11,0.0,0.0,97,0.00,,,0.11,VWS V14.01,2013-04-19 02:33:00,
2013-04-18 21:38:00,31.2,30.5,29.61,North,11,0.0,0.0,97,0.00,,,0.11,VWS V14.01,2013-04-19 02:38:00,
2013-04-18 21:44:00,31.2,30.5,29.60,North,11,0.0,0.0,97,0.00,,,0.11,VWS V14.01,2013-04-19 02:44:00,
2013-04-18 21:45:00,31.2,30.5,29.60,North,11,0.0,0.0,97,0.00,,,0.11,VWS V14.01,2013-04-19 02:45:00,
2013-04-18 21:49:00,31.2,30.5,29.60,North,11,0.0,0.0,97,0.00,,,0.11,VWS V14.01,2013-04-19 02:49:00,
2013-04-18 21:54:00,31.2,30.5,29.60,North,11,0.0,0.0,97,0.00,,,0.11,VWS V14.01,2013-04-19 02:54:00,
2013-04-18 21:59:00,31.1,30.4,29.60,North,11,0.0,0.0,97,0.00,,,0.11,VWS V14.01,2013-04-19 02:59:00,
2013-04-18 22:00:00,31.1,30.4,29.60,North,11,0.0,0.0,97,0.00,,,0.11,VWS V14.01,2013-04-19 03:00:00,
2013-04-18 22:04:00,31.1,30.4,29.60,North,11,0.0,0.0,97,0.00,,,0.11,VWS V14.01,2013-04-19 03:04:00,
2013-04-18 22:09:00,31.1,30.4,29.60,North,11,0.0,0.0,97,0.00,,,0.11,VWS V14.01,2013-04-19 03:09:00,
2013-04-18 22:14:00,31.1,30.4,29.60,North,11,0.0,0.0,97,0.00,,,0.11,VWS V14.01,2013-04-19 03:14:00,
2013-04-18 22:15:00,31.1,30.4,29.60,North,11,0.0,0.0,97,0.00,,,0.11,VWS V14.01,2013-04-19 03:15:00,
2013-04-18 22:19:00,31.1,30.4,29.60,North,11,0.0,0.0,97,0.00,,,0.11,VWS V14.01,2013-04-19 03:19:00,
2013-04-18 22:24:00,31.2,30.5,29.59,North,11,0.0,0.0,97,0.00,,,0.11,VWS V14.01,2013-04-19 03:24:00,
2013-04-18 22:29:00,31.2,30.5,29.59,North,11,0.0,0.0,97,0.00,,,0.11,VWS V14.01,2013-04-19 03:29:00,
2013-04-18 22:30:00,31.2,30.5,29.59,North,11,0.0,0.0,97,0.00,,,0.11,VWS V14.01,2013-04-19 03:30:00,
2013-04-18 22:34:00,31.2,30.5,29.59,North,11,0.0,0.0,97,0.00,,,0.11,VWS V14.01,2013-04-19 03:34:00,
2013-04-18 22:40:00,31.2,30.5,29.58,North,11,0.0,0.0,97,0.00,,,0.11,VWS V14.01,2013-04-19 03:40:00,
2013-04-18 22:45:00,31.2,30.5,29.58,North,11,0.0,0.0,97,0.00,,,0.11,VWS V14.01,2013-04-19 03:45:00,
2013-04-18 22:50:00,31.2,30.5,29.58,North,11,0.0,0.0,97,0.00,,,0.11,VWS V14.01,2013-04-19 03:50:00,
2013-04-18 22:55:00,31.2,30.5,29.58,North,11,0.0,0.0,97,0.00,,,0.11,VWS V14.01,2013-04-19 03:55:00,
2013-04-18 23:00:00,31.2,30.5,29.58,North,11,0.0,0.0,97,0.00,,,0.11,VWS V14.01,2013-04-19 04:00:00,
2013-04-18 23:01:00,31.2,30.5,29.58,North,11,0.0,0.0,97,0.00,,,0.11,VWS V14.01,2013-04-19 04:01:00,
2013-04-18 23:02:00,31.2,30.5,29.58,North,11,0.0,0.0,97,0.00,,,0.11,VWS V14.01,2013-04-19 04:02:00,
2013-04-18 23:03:00,31.2,30.5,29.58,North,11,0.0,0.0,97,0.00,,,0.11,VWS V14.01,2013-04-19 04:03:00,
2013-04-18 23:08:00,31.2,30.5,29.58,North,11,0.0,0.0,97,0.00,,,0.11,VWS V14.01,2013-04-19 04:08:00,
2013-04-18 23:14:00,31.2,30.5,29.58,North,11,0.0,0.0,97,0.00,,,0.11,VWS V14.01,2013-04-19 04:14:00,
2013-04-18 23:15:00,31.2,30.5,29.58,North,11,0.0,0.0,97,0.00,,,0.11,VWS V14.01,2013-04-19 04:15:00,
2013-04-18 23:19:00,31.2,30.5,29.58,North,11,0.0,0.0,97,0.00,,,0.11,VWS V14.01,2013-04-19 04:19:00,
2013-04-18 23:24:00,31.1,30.4,29.57,North,11,0.0,0.0,97,0.00,,,0.11,VWS V14.01,2013-04-19 04:24:00,
2013-04-18 23:29:00,31.1,30.4,29.57,North,11,0.0,0.0,97,0.00,,,0.11,VWS V14.01,2013-04-19 04:29:00,
2013-04-18 23:30:00,31.1,30.4,29.57,North,11,0.0,0.0,97,0.00,,,0.11,VWS V14.01,2013-04-19 04:30:00,
2013-04-18 23:34:00,31.1,30.4,29.57,North,11,0.0,0.0,97,0.00,,,0.11,VWS V14.01,2013-04-19 04:34:00,
2013-04-18 23:39:00,31.1,30.4,29.57,North,11,0.0,0.0,97,0.00,,,0.11,VWS V14.01,2013-04-19 04:39:00,
2013-04-18 23:44:00,31.1,30.4,29.57,North,11,0.0,0.0,97,0.00,,,0.11,VWS V14.01,2013-04-19 04:44:00,
2013-04-18 23:45:00,31.1,30.4,29.57,North,11,0.0,0.0,97,0.00,,,0.11,VWS V14.01,2013-04-19 04:45:00,
2013-04-18 23:49:00,31.0,30.2,29.56,North,11,0.0,0.0,97,0.00,,,0.11,VWS V14.01,2013-04-19 04:49:00,
2013-04-18 23:54:00,31.1,30.4,29.56,North,11,0.0,0.0,97,0.00,,,0.11,VWS V14.01,2013-04-19 04:54:00,
2013-04-18 23:59:00,31.0,30.2,29.56,North,11,0.0,0.0,97,0.00,,,0.00,VWS V14.01,2013-04-19 04:59:00,